THY3255 LTAN-LTFJ
Flight info
| Callsign | THY3255 |
|---|---|
| Flight time | 0h 49m |
| Altitude | 36000 |
| Route | HISAR UB545 OSGED UL610 ETAMP |
| Aircraft | A320/M-SDE3FGHIRWY/LB1 |
Departure
| Time | 2026-05-07 21:18 |
|---|---|
| Airport | Konya Airport (LTAN) |
Arrival
| Time | 2026-05-07 22:07 |
|---|---|
| Airport | Istanbul Sabiha Gökçen International Airport (LTFJ) |
| Time | Latitude | Longitude | Altitude | Speed | Heading |
|---|---|---|---|---|---|
| 2026-05-07 21:01 | 37.98595 | 32.57595 | 3388 ft | 0 kts | 110° |
| 2026-05-07 21:12 | 37.98602 | 32.57571 | 3388 ft | 4 kts | 102° |
| 2026-05-07 21:13 | 37.98604 | 32.57538 | 3388 ft | 4 kts | 77° |
| 2026-05-07 21:13 | 37.98593 | 32.57513 | 3388 ft | 3 kts | 22° |
| 2026-05-07 21:13 | 37.98590 | 32.57511 | 3388 ft | 0 kts | 18° |
| 2026-05-07 21:15 | 37.98639 | 32.57532 | 3388 ft | 14 kts | 18° |
| 2026-05-07 21:15 | 37.98749 | 32.57567 | 3389 ft | 17 kts | 9° |
| 2026-05-07 21:15 | 37.98868 | 32.57592 | 3390 ft | 17 kts | 6° |
| 2026-05-07 21:15 | 37.98962 | 32.57502 | 3391 ft | 18 kts | 309° |
| 2026-05-07 21:16 | 37.99045 | 32.57376 | 3391 ft | 19 kts | 311° |
| 2026-05-07 21:16 | 37.99135 | 32.57245 | 3392 ft | 20 kts | 311° |
| 2026-05-07 21:16 | 37.99230 | 32.57105 | 3392 ft | 21 kts | 310° |
| 2026-05-07 21:16 | 37.99287 | 32.56934 | 3392 ft | 21 kts | 287° |
| 2026-05-07 21:17 | 37.99322 | 32.56769 | 3391 ft | 17 kts | 266° |
| 2026-05-07 21:17 | 37.99208 | 32.56698 | 3390 ft | 30 kts | 197° |
| 2026-05-07 21:17 | 37.98785 | 32.56533 | 3387 ft | 95 kts | 197° |
| 2026-05-07 21:17 | 37.97975 | 32.56225 | 3381 ft | 145 kts | 197° |
| 2026-05-07 21:18 | 37.96892 | 32.55806 | 3579 ft | 168 kts | 197° |
| 2026-05-07 21:18 | 37.95770 | 32.55395 | 4203 ft | 168 kts | 194° |
| 2026-05-07 21:18 | 37.94643 | 32.55073 | 4845 ft | 169 kts | 193° |
| 2026-05-07 21:18 | 37.93496 | 32.54628 | 5193 ft | 182 kts | 216° |
| 2026-05-07 21:19 | 37.92683 | 32.53358 | 5362 ft | 198 kts | 255° |
| 2026-05-07 21:19 | 37.92711 | 32.51568 | 5556 ft | 216 kts | 284° |
| 2026-05-07 21:19 | 37.93094 | 32.49621 | 5876 ft | 233 kts | 285° |
| 2026-05-07 21:19 | 37.93499 | 32.47641 | 6680 ft | 235 kts | 287° |
| 2026-05-07 21:20 | 37.93911 | 32.45621 | 7346 ft | 239 kts | 287° |
| 2026-05-07 21:20 | 37.94325 | 32.43566 | 8086 ft | 242 kts | 287° |
| 2026-05-07 21:20 | 37.94758 | 32.41407 | 8448 ft | 265 kts | 287° |
| 2026-05-07 21:20 | 37.95222 | 32.39088 | 9020 ft | 276 kts | 287° |
| 2026-05-07 21:21 | 37.95690 | 32.36718 | 9786 ft | 279 kts | 287° |
| 2026-05-07 21:21 | 37.96161 | 32.34321 | 10501 ft | 283 kts | 287° |
| 2026-05-07 21:21 | 37.96657 | 32.31799 | 10709 ft | 306 kts | 286° |
| 2026-05-07 21:21 | 37.97188 | 32.29086 | 10915 ft | 327 kts | 286° |
| 2026-05-07 21:22 | 37.97740 | 32.26252 | 11445 ft | 334 kts | 286° |
| 2026-05-07 21:22 | 37.98297 | 32.23376 | 12080 ft | 338 kts | 285° |
| 2026-05-07 21:22 | 37.98859 | 32.20466 | 12751 ft | 342 kts | 285° |
| 2026-05-07 21:22 | 37.99421 | 32.17568 | 13414 ft | 345 kts | 285° |
| 2026-05-07 21:23 | 37.99999 | 32.14599 | 14063 ft | 349 kts | 285° |
| 2026-05-07 21:23 | 38.00581 | 32.11601 | 14660 ft | 351 kts | 285° |
| 2026-05-07 21:23 | 38.01165 | 32.08584 | 15284 ft | 353 kts | 285° |
| 2026-05-07 21:23 | 38.01749 | 32.05553 | 15884 ft | 355 kts | 285° |
| 2026-05-07 21:24 | 38.02336 | 32.02510 | 16503 ft | 356 kts | 285° |
| 2026-05-07 21:24 | 38.02926 | 31.99455 | 17127 ft | 357 kts | 286° |
| 2026-05-07 21:24 | 38.03518 | 31.96389 | 17765 ft | 359 kts | 286° |
| 2026-05-07 21:24 | 38.04111 | 31.93309 | 18403 ft | 360 kts | 286° |
| 2026-05-07 21:25 | 38.04704 | 31.90219 | 18972 ft | 362 kts | 286° |
| 2026-05-07 21:25 | 38.05297 | 31.87106 | 19523 ft | 364 kts | 286° |
| 2026-05-07 21:25 | 38.05894 | 31.83976 | 20063 ft | 366 kts | 286° |
| 2026-05-07 21:25 | 38.06498 | 31.80820 | 20601 ft | 369 kts | 286° |
| 2026-05-07 21:26 | 38.07105 | 31.77640 | 21112 ft | 372 kts | 286° |
| 2026-05-07 21:26 | 38.07716 | 31.74429 | 21631 ft | 375 kts | 286° |
| 2026-05-07 21:26 | 38.08328 | 31.71202 | 22136 ft | 378 kts | 286° |
| 2026-05-07 21:26 | 38.08935 | 31.67987 | 22623 ft | 381 kts | 286° |
| 2026-05-07 21:27 | 38.09553 | 31.64709 | 23089 ft | 384 kts | 286° |
| 2026-05-07 21:27 | 38.10177 | 31.61404 | 23567 ft | 386 kts | 286° |
| 2026-05-07 21:27 | 38.10815 | 31.58078 | 23995 ft | 388 kts | 288° |
| 2026-05-07 21:27 | 38.11760 | 31.54873 | 24384 ft | 388 kts | 298° |
| 2026-05-07 21:28 | 38.13159 | 31.51951 | 24764 ft | 388 kts | 308° |
| 2026-05-07 21:28 | 38.14922 | 31.49343 | 25110 ft | 391 kts | 313° |
| 2026-05-07 21:28 | 38.16747 | 31.46770 | 25472 ft | 393 kts | 313° |
| 2026-05-07 21:28 | 38.18580 | 31.44176 | 25843 ft | 395 kts | 312° |
| 2026-05-07 21:29 | 38.20420 | 31.41564 | 26204 ft | 397 kts | 312° |
| 2026-05-07 21:29 | 38.22264 | 31.38941 | 26557 ft | 399 kts | 312° |
| 2026-05-07 21:29 | 38.24119 | 31.36303 | 26926 ft | 401 kts | 312° |
| 2026-05-07 21:29 | 38.25982 | 31.33654 | 27283 ft | 403 kts | 313° |
| 2026-05-07 21:30 | 38.27854 | 31.30991 | 27636 ft | 405 kts | 313° |
| 2026-05-07 21:30 | 38.29734 | 31.28316 | 27991 ft | 406 kts | 313° |
| 2026-05-07 21:30 | 38.31624 | 31.25623 | 28347 ft | 408 kts | 313° |
| 2026-05-07 21:30 | 38.33517 | 31.22921 | 28670 ft | 411 kts | 313° |
| 2026-05-07 21:31 | 38.35429 | 31.20188 | 28962 ft | 414 kts | 313° |
| 2026-05-07 21:31 | 38.37345 | 31.17444 | 29273 ft | 416 kts | 313° |
| 2026-05-07 21:31 | 38.39272 | 31.14680 | 29602 ft | 418 kts | 313° |
| 2026-05-07 21:31 | 38.41204 | 31.11914 | 30019 ft | 418 kts | 313° |
| 2026-05-07 21:32 | 38.43137 | 31.09144 | 30222 ft | 417 kts | 313° |
| 2026-05-07 21:32 | 38.45063 | 31.06380 | 30252 ft | 417 kts | 313° |
| 2026-05-07 21:32 | 38.48882 | 31.00886 | 30252 ft | 416 kts | 313° |
| 2026-05-07 21:33 | 38.52706 | 30.95339 | 30244 ft | 416 kts | 312° |
| 2026-05-07 21:33 | 38.56524 | 30.89758 | 30250 ft | 418 kts | 312° |
| 2026-05-07 21:34 | 38.60346 | 30.84161 | 30250 ft | 418 kts | 312° |
| 2026-05-07 21:34 | 38.64140 | 30.78615 | 30249 ft | 410 kts | 312° |
| 2026-05-07 21:35 | 38.67888 | 30.73127 | 30252 ft | 408 kts | 312° |
| 2026-05-07 21:35 | 38.71844 | 30.67953 | 30253 ft | 406 kts | 327° |
| 2026-05-07 21:36 | 38.74377 | 30.66377 | 30251 ft | 407 kts | 342° |
| 2026-05-07 21:36 | 38.77088 | 30.65466 | 30256 ft | 408 kts | 345° |
| 2026-05-07 21:36 | 38.82598 | 30.63704 | 30254 ft | 408 kts | 345° |
| 2026-05-07 21:37 | 38.88113 | 30.61937 | 30254 ft | 408 kts | 345° |
| 2026-05-07 21:37 | 38.93627 | 30.60170 | 30255 ft | 408 kts | 345° |
| 2026-05-07 21:38 | 38.99141 | 30.58397 | 30275 ft | 408 kts | 345° |
| 2026-05-07 21:38 | 39.04650 | 30.56610 | 30265 ft | 408 kts | 344° |
| 2026-05-07 21:39 | 39.10159 | 30.54826 | 30265 ft | 407 kts | 345° |
| 2026-05-07 21:39 | 39.15657 | 30.53048 | 30263 ft | 407 kts | 344° |
| 2026-05-07 21:40 | 39.21157 | 30.51250 | 30270 ft | 407 kts | 344° |
| 2026-05-07 21:40 | 39.26646 | 30.49453 | 30267 ft | 407 kts | 344° |
| 2026-05-07 21:41 | 39.32094 | 30.47679 | 30258 ft | 406 kts | 344° |
| 2026-05-07 21:41 | 39.37564 | 30.45893 | 30254 ft | 406 kts | 344° |
| 2026-05-07 21:42 | 39.43043 | 30.44108 | 30266 ft | 406 kts | 344° |
| 2026-05-07 21:42 | 39.48525 | 30.42312 | 30262 ft | 406 kts | 344° |
| 2026-05-07 21:43 | 39.53972 | 30.40520 | 30024 ft | 398 kts | 344° |
| 2026-05-07 21:43 | 39.56640 | 30.39643 | 29736 ft | 393 kts | 344° |
| 2026-05-07 21:43 | 39.59291 | 30.38772 | 29447 ft | 393 kts | 344° |
| 2026-05-07 21:44 | 39.61943 | 30.37900 | 29168 ft | 392 kts | 344° |
| 2026-05-07 21:44 | 39.64582 | 30.37032 | 28902 ft | 390 kts | 344° |
| 2026-05-07 21:44 | 39.67208 | 30.36169 | 28630 ft | 389 kts | 344° |
| 2026-05-07 21:44 | 39.69827 | 30.35305 | 28368 ft | 387 kts | 344° |
| 2026-05-07 21:45 | 39.72395 | 30.34455 | 28103 ft | 386 kts | 344° |
| 2026-05-07 21:45 | 39.74997 | 30.33594 | 27844 ft | 385 kts | 344° |
| 2026-05-07 21:45 | 39.77588 | 30.32733 | 27581 ft | 383 kts | 344° |
| 2026-05-07 21:45 | 39.80169 | 30.31883 | 27324 ft | 382 kts | 344° |
| 2026-05-07 21:46 | 39.82758 | 30.31029 | 27065 ft | 381 kts | 344° |
| 2026-05-07 21:46 | 39.85320 | 30.30180 | 26817 ft | 380 kts | 344° |
| 2026-05-07 21:46 | 39.87876 | 30.29335 | 26560 ft | 378 kts | 344° |
| 2026-05-07 21:46 | 39.90427 | 30.28490 | 26317 ft | 377 kts | 344° |
| 2026-05-07 21:47 | 39.92964 | 30.27644 | 26075 ft | 376 kts | 344° |
| 2026-05-07 21:47 | 39.95496 | 30.26797 | 25827 ft | 375 kts | 344° |
| 2026-05-07 21:47 | 39.98022 | 30.25954 | 25575 ft | 374 kts | 344° |
| 2026-05-07 21:47 | 40.00540 | 30.25116 | 25341 ft | 373 kts | 344° |
| 2026-05-07 21:48 | 40.03050 | 30.24281 | 25098 ft | 372 kts | 344° |
| 2026-05-07 21:48 | 40.05556 | 30.23445 | 24860 ft | 371 kts | 344° |
| 2026-05-07 21:48 | 40.08053 | 30.22612 | 24626 ft | 370 kts | 344° |
| 2026-05-07 21:48 | 40.10544 | 30.21784 | 24394 ft | 369 kts | 344° |
| 2026-05-07 21:49 | 40.13011 | 30.20963 | 24120 ft | 363 kts | 344° |
| 2026-05-07 21:49 | 40.15448 | 30.20149 | 23719 ft | 361 kts | 344° |
| 2026-05-07 21:49 | 40.17873 | 30.19335 | 23276 ft | 358 kts | 344° |
| 2026-05-07 21:49 | 40.20279 | 30.18525 | 22868 ft | 355 kts | 344° |
| 2026-05-07 21:50 | 40.22658 | 30.17724 | 22465 ft | 351 kts | 344° |
| 2026-05-07 21:50 | 40.25018 | 30.16930 | 22043 ft | 349 kts | 344° |
| 2026-05-07 21:50 | 40.26566 | 30.16411 | 21772 ft | 346 kts | 344° |
| 2026-05-07 21:50 | 40.28892 | 30.15634 | 21363 ft | 343 kts | 344° |
| 2026-05-07 21:51 | 40.31201 | 30.14861 | 20942 ft | 341 kts | 344° |
| 2026-05-07 21:51 | 40.34237 | 30.13840 | 20382 ft | 339 kts | 344° |
| 2026-05-07 21:51 | 40.36518 | 30.13071 | 19958 ft | 337 kts | 343° |
| 2026-05-07 21:51 | 40.38785 | 30.12305 | 19530 ft | 336 kts | 343° |
| 2026-05-07 21:52 | 40.40312 | 30.11790 | 19238 ft | 335 kts | 343° |
| 2026-05-07 21:52 | 40.42566 | 30.11029 | 18810 ft | 334 kts | 343° |
| 2026-05-07 21:52 | 40.44816 | 30.10268 | 18368 ft | 334 kts | 344° |
| 2026-05-07 21:52 | 40.47035 | 30.09519 | 17908 ft | 333 kts | 344° |
| 2026-05-07 21:53 | 40.49298 | 30.08756 | 17476 ft | 330 kts | 344° |
| 2026-05-07 21:53 | 40.51487 | 30.08018 | 17050 ft | 328 kts | 344° |
| 2026-05-07 21:53 | 40.53693 | 30.07271 | 16623 ft | 326 kts | 344° |
| 2026-05-07 21:53 | 40.55884 | 30.06530 | 16205 ft | 325 kts | 344° |
| 2026-05-07 21:54 | 40.58072 | 30.05793 | 15776 ft | 324 kts | 344° |
| 2026-05-07 21:54 | 40.60249 | 30.05057 | 15354 ft | 323 kts | 344° |
| 2026-05-07 21:54 | 40.62450 | 30.04311 | 14930 ft | 322 kts | 344° |
| 2026-05-07 21:54 | 40.64590 | 30.03584 | 14510 ft | 322 kts | 345° |
| 2026-05-07 21:55 | 40.66756 | 30.02848 | 14093 ft | 321 kts | 345° |
| 2026-05-07 21:55 | 40.68918 | 30.02114 | 13639 ft | 321 kts | 345° |
| 2026-05-07 21:55 | 40.71079 | 30.01380 | 13193 ft | 320 kts | 345° |
| 2026-05-07 21:55 | 40.73201 | 30.00543 | 12747 ft | 317 kts | 336° |
| 2026-05-07 21:56 | 40.75120 | 29.99143 | 12312 ft | 315 kts | 323° |
| 2026-05-07 21:56 | 40.76848 | 29.97371 | 11820 ft | 315 kts | 322° |
| 2026-05-07 21:56 | 40.78585 | 29.95590 | 11299 ft | 317 kts | 322° |
| 2026-05-07 21:56 | 40.80327 | 29.93815 | 10859 ft | 316 kts | 322° |
| 2026-05-07 21:57 | 40.82064 | 29.92045 | 10413 ft | 315 kts | 322° |
| 2026-05-07 21:57 | 40.83775 | 29.90296 | 10209 ft | 306 kts | 322° |
| 2026-05-07 21:57 | 40.85427 | 29.88604 | 10087 ft | 295 kts | 322° |
| 2026-05-07 21:57 | 40.87020 | 29.86969 | 9961 ft | 285 kts | 322° |
| 2026-05-07 21:58 | 40.88567 | 29.85380 | 9714 ft | 280 kts | 322° |
| 2026-05-07 21:58 | 40.90103 | 29.83804 | 9352 ft | 279 kts | 321° |
| 2026-05-07 21:58 | 40.91623 | 29.82246 | 8795 ft | 275 kts | 321° |
| 2026-05-07 21:58 | 40.93131 | 29.80698 | 8185 ft | 274 kts | 321° |
| 2026-05-07 21:59 | 40.94629 | 29.79160 | 7626 ft | 271 kts | 321° |
| 2026-05-07 21:59 | 40.96112 | 29.77637 | 7064 ft | 269 kts | 320° |
| 2026-05-07 21:59 | 40.97578 | 29.76130 | 6585 ft | 265 kts | 320° |
| 2026-05-07 21:59 | 40.99006 | 29.74661 | 6110 ft | 263 kts | 320° |
| 2026-05-07 22:00 | 41.00424 | 29.73202 | 5818 ft | 250 kts | 320° |
| 2026-05-07 22:00 | 41.01753 | 29.71830 | 5633 ft | 234 kts | 317° |
| 2026-05-07 22:00 | 41.02722 | 29.70192 | 5516 ft | 226 kts | 291° |
| 2026-05-07 22:00 | 41.02985 | 29.68168 | 5394 ft | 225 kts | 265° |
| 2026-05-07 22:01 | 41.02501 | 29.66188 | 4990 ft | 231 kts | 241° |
| 2026-05-07 22:01 | 41.01662 | 29.64352 | 4619 ft | 232 kts | 241° |
| 2026-05-07 22:01 | 41.00831 | 29.62539 | 4332 ft | 230 kts | 241° |
| 2026-05-07 22:01 | 41.00001 | 29.60722 | 3948 ft | 233 kts | 241° |
| 2026-05-07 22:02 | 40.99169 | 29.58891 | 3685 ft | 230 kts | 241° |
| 2026-05-07 22:02 | 40.98357 | 29.57104 | 3541 ft | 222 kts | 242° |
| 2026-05-07 22:02 | 40.97662 | 29.55352 | 3505 ft | 208 kts | 246° |
| 2026-05-07 22:02 | 40.97045 | 29.53681 | 3512 ft | 198 kts | 247° |
| 2026-05-07 22:03 | 40.96463 | 29.52073 | 3519 ft | 190 kts | 247° |
| 2026-05-07 22:03 | 40.95918 | 29.50552 | 3403 ft | 177 kts | 247° |
| 2026-05-07 22:03 | 40.95397 | 29.49129 | 3155 ft | 166 kts | 246° |
| 2026-05-07 22:03 | 40.94902 | 29.47816 | 2932 ft | 153 kts | 246° |
| 2026-05-07 22:04 | 40.94443 | 29.46617 | 2831 ft | 142 kts | 246° |
| 2026-05-07 22:04 | 40.94013 | 29.45450 | 2610 ft | 140 kts | 247° |
| 2026-05-07 22:04 | 40.93605 | 29.44290 | 2334 ft | 138 kts | 248° |
| 2026-05-07 22:04 | 40.93221 | 29.43151 | 2033 ft | 137 kts | 248° |
| 2026-05-07 22:05 | 40.92827 | 29.42010 | 1794 ft | 136 kts | 246° |
| 2026-05-07 22:05 | 40.92403 | 29.40884 | 1620 ft | 137 kts | 244° |
| 2026-05-07 22:05 | 40.91974 | 29.39763 | 1342 ft | 137 kts | 243° |
| 2026-05-07 22:05 | 40.91543 | 29.38639 | 1150 ft | 138 kts | 244° |
| 2026-05-07 22:06 | 40.91126 | 29.37482 | 992 ft | 141 kts | 245° |
| 2026-05-07 22:06 | 40.90714 | 29.36307 | 794 ft | 141 kts | 244° |
| 2026-05-07 22:06 | 40.90279 | 29.35140 | 599 ft | 142 kts | 244° |
| 2026-05-07 22:06 | 40.89856 | 29.33960 | 359 ft | 142 kts | 243° |
| 2026-05-07 22:07 | 40.89455 | 29.32865 | 300 ft | 107 kts | 242° |
| 2026-05-07 22:07 | 40.89248 | 29.32328 | 304 ft | 50 kts | 244° |
| 2026-05-07 22:07 | 40.89127 | 29.31972 | 301 ft | 35 kts | 262° |
| 2026-05-07 22:07 | 40.89130 | 29.31671 | 302 ft | 28 kts | 272° |
| 2026-05-07 22:08 | 40.89142 | 29.31492 | 300 ft | 14 kts | 289° |
| 2026-05-07 22:08 | 40.89219 | 29.31432 | 302 ft | 15 kts | 12° |
| 2026-05-07 22:08 | 40.89275 | 29.31546 | 302 ft | 16 kts | 56° |
| 2026-05-07 22:08 | 40.89372 | 29.31536 | 301 ft | 16 kts | 332° |
| 2026-05-07 22:09 | 40.89438 | 29.31499 | 306 ft | 5 kts | 0° |
| 2026-05-07 22:09 | 40.89460 | 29.31523 | 304 ft | 4 kts | 35° |
| 2026-05-07 22:09 | 40.89479 | 29.31560 | 306 ft | 6 kts | 69° |
| 2026-05-07 22:09 | 40.89492 | 29.31600 | 307 ft | 2 kts | 63° |
| 2026-05-07 22:10 | 40.89494 | 29.31605 | 306 ft | 0 kts | 63° |